createdAt,value
2023-05-05T00:01:57.780Z,3.37
2023-05-05T00:04:25.051Z,2.50
2023-05-05T00:06:52.306Z,1.57
2023-05-05T00:09:19.553Z,2.10
2023-05-05T00:11:46.793Z,1.53
2023-05-05T00:14:15.450Z,1.93
2023-05-05T00:16:42.698Z,1.50
2023-05-05T00:19:10.078Z,1.80
2023-05-05T00:21:37.374Z,1.70
2023-05-05T00:24:04.869Z,2.10
2023-05-05T00:26:32.172Z,1.53
2023-05-05T00:28:59.877Z,1.80
2023-05-05T00:31:28.466Z,1.67
2023-05-05T00:33:55.828Z,1.67
2023-05-05T00:36:23.107Z,2.03
2023-05-05T00:38:50.431Z,1.50
2023-05-05T00:41:17.678Z,1.53
2023-05-05T00:43:45.202Z,1.80
2023-05-05T00:46:19.668Z,1.60
2023-05-05T00:48:48.503Z,1.83
2023-05-05T00:51:16.478Z,1.80
2023-05-05T00:53:44.441Z,1.37
2023-05-05T00:56:11.909Z,1.90
2023-05-05T00:58:39.833Z,1.90
2023-05-05T01:01:07.044Z,2.20
2023-05-05T01:03:34.523Z,1.80
2023-05-05T01:06:09.574Z,1.60
2023-05-05T01:08:40.328Z,1.60
2023-05-05T01:11:11.567Z,2.17
2023-05-05T01:13:43.614Z,2.30
2023-05-05T01:16:13.672Z,1.83
2023-05-05T01:18:45.390Z,2.20
2023-05-05T01:21:14.660Z,2.53
2023-05-05T01:24:07.253Z,2.53
2023-05-05T01:26:48.550Z,2.60
2023-05-05T01:29:25.222Z,2.50
2023-05-05T01:31:54.744Z,2.70
2023-05-05T01:34:25.027Z,2.80
2023-05-05T01:36:56.177Z,2.60
2023-05-05T01:39:25.246Z,2.67
2023-05-05T01:41:56.958Z,2.73
2023-05-05T01:44:24.381Z,2.37
2023-05-05T01:46:52.686Z,2.10
2023-05-05T01:49:21.465Z,2.60
2023-05-05T01:51:49.594Z,2.40
2023-05-05T01:54:17.506Z,2.23
2023-05-05T01:56:45.926Z,2.83
2023-05-05T01:59:13.671Z,2.60
2023-05-05T02:01:41.395Z,2.80
2023-05-05T02:04:09.342Z,2.50
2023-05-05T02:06:39.689Z,2.50
2023-05-05T02:09:07.126Z,2.60
2023-05-05T02:11:35.539Z,2.70
2023-05-05T02:14:03.032Z,2.50
2023-05-05T02:16:30.518Z,2.40
2023-05-05T02:18:59.121Z,3.50
2023-05-05T02:21:26.550Z,3.10
2023-05-05T02:23:55.181Z,2.50
2023-05-05T02:26:24.297Z,2.73
2023-05-05T02:28:53.520Z,3.10
2023-05-05T02:31:22.511Z,3.10
2023-05-05T02:33:50.180Z,3.17
2023-05-05T02:36:19.800Z,3.80
2023-05-05T02:39:01.353Z,2.70
2023-05-05T02:41:33.605Z,3.83
2023-05-05T02:44:05.949Z,3.47
2023-05-05T02:46:34.750Z,4.60
2023-05-05T02:49:02.283Z,4.37
2023-05-05T02:51:29.853Z,4.30
2023-05-05T02:54:02.129Z,4.57
2023-05-05T02:56:35.081Z,4.80
2023-05-05T02:59:09.549Z,5.10
2023-05-05T03:01:40.935Z,5.47
2023-05-05T03:04:13.338Z,5.90
2023-05-05T03:06:48.463Z,7.03
2023-05-05T03:09:23.500Z,6.50
2023-05-05T03:11:53.742Z,8.18
2023-05-05T03:14:21.670Z,8.60
2023-05-05T03:16:50.808Z,9.33
2023-05-05T03:19:19.497Z,9.80
2023-05-05T03:21:49.972Z,10.40
2023-05-05T03:24:18.227Z,11.27
2023-05-05T03:26:53.284Z,11.27
2023-05-05T03:29:23.255Z,12.90
2023-05-05T03:31:50.623Z,12.20
2023-05-05T03:34:18.857Z,12.50
2023-05-05T03:36:48.354Z,12.80
2023-05-05T03:39:16.772Z,13.13
2023-05-05T03:41:44.207Z,14.27
2023-05-05T03:44:14.084Z,13.37
2023-05-05T03:46:41.876Z,13.30
2023-05-05T03:49:12.593Z,14.77
2023-05-05T03:51:41.860Z,16.73
2023-05-05T03:54:09.216Z,16.50
2023-05-05T03:56:37.360Z,15.30
2023-05-05T03:59:04.642Z,17.27
2023-05-05T04:01:33.237Z,15.30
2023-05-05T04:04:00.582Z,16.50
2023-05-05T04:06:27.975Z,16.73
2023-05-05T04:08:55.338Z,16.07
2023-05-05T04:11:22.563Z,15.73
2023-05-05T04:13:49.940Z,16.90
2023-05-05T04:16:18.219Z,16.47
2023-05-05T04:18:46.858Z,17.70
2023-05-05T04:21:14.139Z,15.93
2023-05-05T04:23:41.619Z,16.13
2023-05-05T04:26:09.000Z,17.63
2023-05-05T04:28:36.387Z,17.93
2023-05-05T04:31:04.138Z,16.23
2023-05-05T04:33:34.178Z,16.50
2023-05-05T04:36:03.295Z,18.17
2023-05-05T04:38:30.771Z,18.90
2023-05-05T04:40:58.994Z,18.57
2023-05-05T04:43:26.868Z,18.87
2023-05-05T04:45:54.354Z,19.17
2023-05-05T04:48:23.828Z,19.20
2023-05-05T04:50:52.180Z,20.07
2023-05-05T04:53:20.835Z,18.33
2023-05-05T04:55:48.137Z,19.37
2023-05-05T04:58:15.396Z,19.23
2023-05-05T05:00:42.651Z,19.90
2023-05-05T05:03:09.977Z,18.93
2023-05-05T05:05:37.348Z,19.40
2023-05-05T05:08:04.838Z,20.07
2023-05-05T05:10:33.455Z,21.67
2023-05-05T05:13:00.735Z,21.03
2023-05-05T05:15:28.029Z,20.20
2023-05-05T05:17:55.733Z,20.80
2023-05-05T05:20:23.216Z,19.30
2023-05-05T05:22:50.831Z,20.17
2023-05-05T05:25:21.382Z,17.97
2023-05-05T05:28:02.306Z,19.60
2023-05-05T05:30:37.836Z,19.50
2023-05-05T05:33:07.119Z,19.03
2023-05-05T05:35:34.926Z,19.63
2023-05-05T05:38:02.223Z,19.10
2023-05-05T05:40:29.531Z,18.43
2023-05-05T05:42:58.404Z,18.60
2023-05-05T05:45:26.520Z,18.17
2023-05-05T05:47:53.988Z,19.33
2023-05-05T05:50:21.655Z,19.17
2023-05-05T05:52:49.040Z,15.80
2023-05-05T05:55:16.359Z,16.70
2023-05-05T05:57:43.708Z,16.70
2023-05-05T06:00:14.525Z,17.90
2023-05-05T06:02:46.105Z,16.27
2023-05-05T06:05:17.445Z,17.63
2023-05-05T06:07:46.293Z,16.27
2023-05-05T06:10:26.642Z,16.67
2023-05-05T06:12:59.755Z,17.23
2023-05-05T06:15:28.633Z,14.57
2023-05-05T06:17:56.232Z,13.83
2023-05-05T06:20:23.789Z,13.13
2023-05-05T06:22:51.331Z,11.60
2023-05-05T06:25:19.020Z,8.83
2023-05-05T06:27:46.714Z,10.20
2023-05-05T06:30:14.702Z,10.07
2023-05-05T06:32:43.449Z,9.97
2023-05-05T06:35:10.784Z,9.20
2023-05-05T06:37:38.030Z,10.40
2023-05-05T06:40:05.879Z,9.50
2023-05-05T06:42:33.482Z,9.50
2023-05-05T06:45:04.375Z,10.57
2023-05-05T06:47:31.714Z,9.43
2023-05-05T06:50:00.358Z,8.47
2023-05-05T06:52:27.679Z,10.03
2023-05-05T06:54:54.934Z,9.67
2023-05-05T06:57:22.511Z,8.87
2023-05-05T06:59:49.757Z,9.20
2023-05-05T07:02:17.021Z,10.57
2023-05-05T07:04:44.383Z,8.60
2023-05-05T07:07:12.972Z,9.57
2023-05-05T07:09:40.251Z,7.67
2023-05-05T07:12:07.955Z,8.33
2023-05-05T07:14:35.134Z,7.33
2023-05-05T07:17:02.504Z,8.10
2023-05-05T07:19:29.840Z,6.07
2023-05-05T07:21:57.097Z,7.07
2023-05-05T07:24:25.765Z,6.33
2023-05-05T07:26:53.011Z,6.83
2023-05-05T07:29:20.453Z,7.73
2023-05-05T07:31:47.756Z,6.43
2023-05-05T07:34:15.018Z,5.93
2023-05-05T07:36:42.678Z,7.47
2023-05-05T07:39:09.934Z,6.27
2023-05-05T07:41:38.607Z,7.67
2023-05-05T07:44:05.922Z,6.60
2023-05-05T07:46:33.198Z,6.43
2023-05-05T07:49:00.702Z,6.87
2023-05-05T07:51:28.101Z,5.20
2023-05-05T07:53:56.064Z,5.37
2023-05-05T07:56:23.304Z,4.27
2023-05-05T07:58:52.351Z,4.70
2023-05-05T08:01:19.944Z,4.70
2023-05-05T08:03:47.622Z,4.97
2023-05-05T08:06:15.419Z,5.47
2023-05-05T08:08:42.871Z,4.07
2023-05-05T08:11:10.112Z,3.77
2023-05-05T08:13:37.361Z,3.40
2023-05-05T08:16:06.436Z,2.07
2023-05-05T08:18:33.778Z,2.60
2023-05-05T08:21:01.178Z,3.87
2023-05-05T08:23:28.403Z,3.20
2023-05-05T08:25:55.710Z,3.03
2023-05-05T08:28:23.010Z,2.93
2023-05-05T08:30:50.476Z,2.80
2023-05-05T08:33:19.106Z,3.60
2023-05-05T08:35:46.288Z,3.97
2023-05-05T08:38:13.559Z,3.53
2023-05-05T08:40:41.304Z,2.53
2023-05-05T08:43:08.607Z,3.80
2023-05-05T08:45:36.096Z,3.10
2023-05-05T08:48:04.500Z,3.20
2023-05-05T08:50:33.523Z,3.40
2023-05-05T08:53:08.420Z,3.03
2023-05-05T08:55:36.304Z,3.67
2023-05-05T08:58:03.786Z,3.20
2023-05-05T09:00:31.204Z,3.47
2023-05-05T09:02:59.396Z,3.00
2023-05-05T09:05:27.652Z,3.70
2023-05-05T09:07:56.356Z,3.00
2023-05-05T09:10:23.752Z,2.90
2023-05-05T09:12:51.642Z,2.77
2023-05-05T09:15:18.924Z,2.87
2023-05-05T09:17:46.269Z,3.27
2023-05-05T09:20:14.255Z,2.63
2023-05-05T09:22:42.247Z,3.00
2023-05-05T09:25:11.473Z,3.30
2023-05-05T09:27:39.716Z,3.30
2023-05-05T09:30:07.644Z,3.55
2023-05-05T09:32:45.076Z,4.17
2023-05-05T09:35:12.562Z,4.07
2023-05-05T09:37:39.773Z,4.00
2023-05-05T09:40:07.746Z,3.77
2023-05-05T09:42:36.614Z,3.60
2023-05-05T09:45:04.122Z,3.33
2023-05-05T09:47:35.049Z,4.83
2023-05-05T09:50:02.731Z,3.87
2023-05-05T09:52:30.364Z,3.87
2023-05-05T09:54:58.078Z,2.70
2023-05-05T09:57:29.283Z,2.30
2023-05-05T09:59:59.058Z,2.17
2023-05-05T10:02:33.382Z,2.83
2023-05-05T10:05:07.737Z,2.20
2023-05-05T10:07:35.400Z,1.97
2023-05-05T10:10:03.335Z,2.30
2023-05-05T10:12:30.674Z,2.20
2023-05-05T10:15:01.786Z,2.07
2023-05-05T10:17:31.128Z,2.17
2023-05-05T10:19:58.576Z,2.40
2023-05-05T10:22:25.951Z,2.03
2023-05-05T10:24:57.114Z,2.20
2023-05-05T10:27:25.451Z,2.53
2023-05-05T10:29:55.784Z,2.30
2023-05-05T10:32:50.194Z,2.43
2023-05-05T10:35:16.656Z,2.50
2023-05-05T10:37:45.070Z,3.03
2023-05-05T10:40:12.902Z,3.37
2023-05-05T10:42:40.421Z,2.50
2023-05-05T10:45:08.825Z,3.27
2023-05-05T10:47:37.857Z,2.90
2023-05-05T10:50:08.237Z,2.43
2023-05-05T10:52:38.731Z,3.00
2023-05-05T10:55:10.052Z,2.60
2023-05-05T10:57:39.897Z,3.63
2023-05-05T11:00:07.833Z,2.90
2023-05-05T11:02:35.448Z,3.40
2023-05-05T11:05:11.248Z,4.70
2023-05-05T11:07:38.613Z,4.97
2023-05-05T11:10:06.427Z,6.40
2023-05-05T11:12:53.926Z,6.73
2023-05-05T11:15:33.891Z,6.50
2023-05-05T11:18:03.258Z,6.13
2023-05-05T11:20:50.875Z,4.57
2023-05-05T11:23:25.486Z,5.93
2023-05-05T11:25:52.923Z,6.70
2023-05-05T11:28:21.009Z,6.60
2023-05-05T11:31:07.093Z,6.40
2023-05-05T11:33:35.068Z,5.03
2023-05-05T11:36:05.833Z,6.30
2023-05-05T11:38:42.532Z,4.57
2023-05-05T11:41:13.057Z,6.13
2023-05-05T11:43:40.566Z,4.63
2023-05-05T11:46:14.200Z,6.37
2023-05-05T11:48:44.755Z,7.17
2023-05-05T11:51:12.257Z,6.37
2023-05-05T11:53:42.904Z,6.23
2023-05-05T11:56:10.702Z,5.43
2023-05-05T11:58:38.094Z,7.53
2023-05-05T12:01:06.000Z,6.53
2023-05-05T12:03:35.284Z,7.17
2023-05-05T12:06:02.635Z,7.60
2023-05-05T12:08:33.081Z,8.00
2023-05-05T12:11:04.640Z,8.07
2023-05-05T12:13:31.949Z,6.97
2023-05-05T12:16:08.535Z,7.47
2023-05-05T12:18:35.766Z,6.57
2023-05-05T12:21:03.107Z,6.43
2023-05-05T12:23:38.082Z,7.53
2023-05-05T12:26:06.805Z,7.53
2023-05-05T12:28:44.288Z,6.57
2023-05-05T12:31:11.640Z,6.23
2023-05-05T12:33:39.627Z,6.03
2023-05-05T12:36:07.853Z,5.50
2023-05-05T12:38:35.803Z,5.17
2023-05-05T12:41:03.315Z,5.70
2023-05-05T12:43:32.908Z,5.63
2023-05-05T12:46:04.300Z,4.83
2023-05-05T12:48:31.577Z,3.90
2023-05-05T12:51:10.991Z,4.37
2023-05-05T12:53:38.436Z,4.77
2023-05-05T12:56:05.804Z,4.53
2023-05-05T12:58:48.267Z,5.20
2023-05-05T13:01:16.957Z,4.80
2023-05-05T13:03:44.327Z,6.17
2023-05-05T13:06:21.411Z,6.07
2023-05-05T13:08:48.653Z,5.30
2023-05-05T13:11:15.896Z,4.40
2023-05-05T13:13:43.147Z,4.70
2023-05-05T13:16:10.483Z,3.77
2023-05-05T13:18:45.499Z,3.63
2023-05-05T13:21:12.976Z,3.23
2023-05-05T13:23:43.009Z,3.00
2023-05-05T13:26:10.440Z,2.83
2023-05-05T13:28:37.665Z,2.73
2023-05-05T13:31:05.153Z,2.90
2023-05-05T13:33:33.611Z,2.57
2023-05-05T13:36:02.598Z,2.50
2023-05-05T13:38:29.964Z,2.70
2023-05-05T13:40:57.429Z,2.87
2023-05-05T13:43:24.665Z,2.47
2023-05-05T13:45:52.113Z,2.43
2023-05-05T13:48:19.511Z,2.60
2023-05-05T13:50:46.823Z,2.70
2023-05-05T13:53:15.427Z,2.50
2023-05-05T13:55:42.706Z,2.77
2023-05-05T13:58:10.049Z,3.25
2023-05-05T14:00:37.498Z,2.97
2023-05-05T14:03:04.971Z,3.40
2023-05-05T14:05:32.272Z,3.70
2023-05-05T14:07:59.538Z,3.57
2023-05-05T14:10:28.104Z,2.50
2023-05-05T14:12:55.515Z,3.67
2023-05-05T14:15:22.823Z,3.10
2023-05-05T14:17:50.355Z,3.40
2023-05-05T14:20:17.644Z,3.67
2023-05-05T14:22:44.928Z,4.03
2023-05-05T14:25:12.197Z,4.57
2023-05-05T14:27:40.852Z,6.07
2023-05-05T14:30:08.673Z,5.87
2023-05-05T14:32:35.964Z,6.13
2023-05-05T14:35:03.354Z,4.20
2023-05-05T14:37:30.626Z,3.80
2023-05-05T14:39:57.882Z,3.70
2023-05-05T14:42:25.154Z,3.20
2023-05-05T14:44:53.897Z,4.57
2023-05-05T14:47:21.389Z,4.30
2023-05-05T14:49:48.588Z,4.60
2023-05-05T14:52:15.937Z,7.00
2023-05-05T14:54:43.219Z,7.97
2023-05-05T14:57:10.452Z,7.03
2023-05-05T14:59:37.660Z,8.63
2023-05-05T15:02:06.436Z,7.77
2023-05-05T15:04:33.678Z,7.63
2023-05-05T15:07:00.915Z,7.30
2023-05-05T15:09:28.129Z,7.33
2023-05-05T15:11:55.395Z,7.67
2023-05-05T15:14:22.656Z,8.02
2023-05-05T15:16:49.938Z,9.00
2023-05-05T15:19:18.880Z,6.97
2023-05-05T15:21:46.123Z,5.80
2023-05-05T15:24:13.409Z,7.97
2023-05-05T15:26:40.787Z,7.33
2023-05-05T15:29:08.034Z,8.37
2023-05-05T15:31:35.366Z,8.90
2023-05-05T15:34:05.733Z,8.20
2023-05-05T15:36:34.145Z,8.27
2023-05-05T15:39:02.775Z,8.77
2023-05-05T15:41:30.125Z,6.67
2023-05-05T15:43:57.331Z,9.50
2023-05-05T15:46:24.612Z,7.93
2023-05-05T15:48:51.918Z,9.40
2023-05-05T15:51:19.127Z,7.17
2023-05-05T15:53:46.359Z,10.30
2023-05-05T15:56:15.070Z,8.60
2023-05-05T15:58:42.302Z,6.33
2023-05-05T16:01:09.595Z,8.60
2023-05-05T16:03:36.856Z,9.37
2023-05-05T16:06:04.381Z,9.27
2023-05-05T16:08:31.668Z,9.37
2023-05-05T16:10:59.090Z,10.03
2023-05-05T16:13:28.980Z,9.30
2023-05-05T16:15:56.262Z,9.10
2023-05-05T16:18:23.540Z,9.27
2023-05-05T16:20:50.818Z,9.20
2023-05-05T16:23:18.099Z,7.93
2023-05-05T16:25:45.419Z,9.07
2023-05-05T16:28:12.681Z,9.07
2023-05-05T16:30:41.310Z,8.30
2023-05-05T16:33:08.621Z,8.63
2023-05-05T16:35:35.936Z,7.50
2023-05-05T16:38:03.327Z,8.40
2023-05-05T16:40:30.717Z,9.13
2023-05-05T16:42:58.022Z,8.80
2023-05-05T16:45:25.280Z,9.03
2023-05-05T16:47:53.967Z,8.77
2023-05-05T16:50:21.442Z,8.77
2023-05-05T16:52:48.720Z,6.93
2023-05-05T16:55:16.218Z,8.33
2023-05-05T16:57:43.635Z,8.40
2023-05-05T17:00:11.187Z,7.73
2023-05-05T17:02:38.489Z,6.73
2023-05-05T17:05:07.659Z,6.87
2023-05-05T17:07:35.124Z,8.20
2023-05-05T17:10:02.354Z,8.48
2023-05-05T17:12:29.588Z,7.77
2023-05-05T17:14:56.894Z,7.57
2023-05-05T17:17:24.099Z,7.33
2023-05-05T17:19:51.365Z,7.17
2023-05-05T17:22:20.163Z,7.13
2023-05-05T17:24:47.505Z,7.97
2023-05-05T17:27:14.750Z,7.57
2023-05-05T17:29:42.025Z,7.50
2023-05-05T17:32:09.770Z,7.20
2023-05-05T17:34:37.170Z,7.10
2023-05-05T17:37:04.404Z,7.33
2023-05-05T17:39:33.374Z,7.47
2023-05-05T17:42:00.677Z,7.10
2023-05-05T17:44:27.907Z,8.00
2023-05-05T17:46:55.145Z,7.13
2023-05-05T17:49:22.358Z,8.10
2023-05-05T17:51:49.626Z,8.17
2023-05-05T17:54:16.947Z,7.73
2023-05-05T17:56:45.586Z,8.17
2023-05-05T17:59:12.796Z,7.40
2023-05-05T18:01:40.168Z,8.53
2023-05-05T18:04:07.555Z,7.27
2023-05-05T18:06:34.806Z,7.93
2023-05-05T18:09:02.130Z,7.93
2023-05-05T18:11:29.379Z,8.03
2023-05-05T18:13:58.039Z,8.50
2023-05-05T18:16:25.543Z,8.50
2023-05-05T18:18:52.939Z,8.87
2023-05-05T18:21:20.378Z,6.93
2023-05-05T18:23:47.623Z,7.67
2023-05-05T18:26:14.851Z,8.10
2023-05-05T18:28:42.104Z,7.97
2023-05-05T18:31:10.771Z,5.30
2023-05-05T18:33:38.148Z,8.53
2023-05-05T18:36:06.242Z,8.17
2023-05-05T18:38:33.507Z,7.53
2023-05-05T18:41:00.781Z,8.70
2023-05-05T18:43:28.171Z,8.07
2023-05-05T18:45:55.444Z,8.20
2023-05-05T18:48:24.154Z,7.60
2023-05-05T18:50:51.454Z,8.53
2023-05-05T18:53:18.746Z,8.57
2023-05-05T18:55:46.008Z,8.10
2023-05-05T18:58:13.304Z,7.90
2023-05-05T19:00:40.575Z,8.43
2023-05-05T19:03:07.831Z,8.17
2023-05-05T19:05:36.474Z,8.00
2023-05-05T19:08:03.714Z,7.60
2023-05-05T19:10:31.034Z,8.07
2023-05-05T19:12:58.332Z,8.63
2023-05-05T19:15:25.652Z,7.20
2023-05-05T19:17:53.211Z,7.97
2023-05-05T19:20:20.521Z,8.33
2023-05-05T19:22:49.152Z,8.00
2023-05-05T19:25:16.855Z,8.23
2023-05-05T19:27:44.364Z,7.50
2023-05-05T19:30:11.907Z,8.10
2023-05-05T19:32:39.281Z,8.23
2023-05-05T19:35:06.835Z,7.87
2023-05-05T19:37:34.102Z,8.37
2023-05-05T19:40:02.849Z,7.87
2023-05-05T19:42:30.127Z,8.20
2023-05-05T19:44:57.396Z,7.93
2023-05-05T19:47:24.703Z,7.57
2023-05-05T19:49:52.011Z,7.57
2023-05-05T19:52:19.305Z,8.93
2023-05-05T19:54:46.557Z,8.63
2023-05-05T19:57:15.235Z,8.63
2023-05-05T19:59:42.532Z,8.70
2023-05-05T20:02:09.821Z,8.43
2023-05-05T20:04:37.114Z,8.37
2023-05-05T20:07:04.492Z,8.20
2023-05-05T20:09:31.692Z,8.77
2023-05-05T20:11:59.380Z,7.53
2023-05-05T20:14:27.981Z,8.80
2023-05-05T20:16:55.245Z,8.00
2023-05-05T20:19:25.486Z,8.37
2023-05-05T20:21:52.766Z,8.03
2023-05-05T20:24:20.049Z,8.97
2023-05-05T20:26:47.294Z,8.17
2023-05-05T20:29:14.578Z,8.70
2023-05-05T20:31:43.249Z,8.80
2023-05-05T20:34:10.542Z,8.60
2023-05-05T20:36:37.874Z,8.90
2023-05-05T20:39:05.274Z,8.30
2023-05-05T20:41:32.588Z,9.57
2023-05-05T20:43:59.806Z,8.47
2023-05-05T20:46:27.148Z,8.87
2023-05-05T20:48:55.784Z,9.70
2023-05-05T20:51:23.174Z,8.63
2023-05-05T20:53:50.501Z,8.60
2023-05-05T20:56:17.741Z,8.67
2023-05-05T20:58:44.972Z,8.73
2023-05-05T21:01:12.289Z,7.93
2023-05-05T21:03:39.522Z,8.83
2023-05-05T21:06:08.174Z,7.97
2023-05-05T21:08:35.446Z,8.20
2023-05-05T21:11:02.665Z,9.57
2023-05-05T21:13:29.981Z,9.00
2023-05-05T21:15:57.221Z,8.27
2023-05-05T21:18:24.551Z,8.47
2023-05-05T21:20:51.873Z,8.23
2023-05-05T21:23:20.439Z,8.57
2023-05-05T21:25:47.794Z,8.40
2023-05-05T21:28:15.110Z,8.70
2023-05-05T21:30:42.310Z,9.23
2023-05-05T21:33:09.614Z,8.57
2023-05-05T21:35:37.203Z,8.67
2023-05-05T21:38:04.458Z,8.93
2023-05-05T21:40:33.047Z,8.90
2023-05-05T21:43:00.309Z,9.03
2023-05-05T21:45:27.618Z,8.90
2023-05-05T21:47:54.961Z,9.03
2023-05-05T21:50:22.225Z,9.33
2023-05-05T21:52:49.539Z,8.70
2023-05-05T21:55:16.836Z,9.47
2023-05-05T21:57:45.503Z,10.00
2023-05-05T22:00:13.297Z,9.33
2023-05-05T22:02:41.836Z,9.73
2023-05-05T22:05:09.279Z,9.50
2023-05-05T22:07:36.559Z,10.30
2023-05-05T22:10:03.879Z,9.93
2023-05-05T22:12:31.153Z,10.00
2023-05-05T22:14:59.869Z,9.93
2023-05-05T22:17:27.192Z,9.73
2023-05-05T22:19:54.497Z,10.97
2023-05-05T22:22:22.065Z,10.50
2023-05-05T22:24:49.919Z,10.33
2023-05-05T22:27:17.123Z,10.97
2023-05-05T22:29:44.531Z,9.50
2023-05-05T22:32:13.263Z,11.50
2023-05-05T22:34:40.491Z,10.43
2023-05-05T22:37:07.769Z,9.40
2023-05-05T22:39:34.968Z,9.63
2023-05-05T22:42:02.247Z,10.53
2023-05-05T22:44:29.464Z,10.63
2023-05-05T22:46:56.834Z,9.67
2023-05-05T22:49:25.603Z,10.47
2023-05-05T22:51:53.019Z,11.30
2023-05-05T22:54:20.312Z,11.43
2023-05-05T22:56:48.044Z,10.70
2023-05-05T22:59:15.327Z,11.77
2023-05-05T23:01:42.767Z,11.80
2023-05-05T23:04:10.226Z,11.10
2023-05-05T23:06:38.981Z,12.20
2023-05-05T23:09:06.258Z,11.03
2023-05-05T23:11:33.501Z,11.80
2023-05-05T23:14:00.748Z,10.97
2023-05-05T23:16:28.002Z,11.10
2023-05-05T23:18:55.479Z,11.00
2023-05-05T23:21:22.716Z,11.63
2023-05-05T23:23:51.443Z,12.37
2023-05-05T23:26:18.726Z,11.80
2023-05-05T23:28:45.957Z,11.93
2023-05-05T23:31:13.221Z,11.60
2023-05-05T23:33:40.629Z,13.35
2023-05-05T23:36:07.984Z,12.50
2023-05-05T23:38:35.248Z,12.63
2023-05-05T23:41:03.882Z,12.93
2023-05-05T23:43:31.858Z,11.07
2023-05-05T23:45:59.314Z,11.60
2023-05-05T23:48:26.756Z,12.37
2023-05-05T23:50:54.350Z,13.00
2023-05-05T23:53:21.701Z,12.07
2023-05-05T23:55:48.945Z,13.00
2023-05-05T23:58:17.574Z,13.00
